Time;durP1;ratioP1;P1;durP2;ratioP2;P2;SDS_P1;SDS_P2;PMS_P1;PMS_P2;Temp;Humidity;BMP_temperature;BMP_pressure;BME280_temperature;BME280_humidity;BME280_pressure;Samples;Min_cycle;Max_cycle;Signal;HPM_P1;HPM_P2
2021/12/07 00:00:24;;;;;;;18.07;11.00;;;-0.50;99.90;;;;;;5083567;28;20210;-62
2021/12/07 00:02:52;;;;;;;21.10;12.13;;;-0.50;99.90;;;;;;5075218;28;20212;-62
2021/12/07 00:05:20;;;;;;;22.20;12.40;;;-0.50;99.90;;;;;;5070336;28;20201;-63
2021/12/07 00:07:47;;;;;;;19.77;11.77;;;-0.50;99.90;;;;;;5085670;28;20269;-62
2021/12/07 00:10:15;;;;;;;19.80;11.67;;;-0.50;99.90;;;;;;5084555;28;20208;-63
2021/12/07 00:12:46;;;;;;;23.80;12.87;;;-0.40;99.90;;;;;;5084016;28;20262;-62
2021/12/07 00:15:17;;;;;;;22.50;12.27;;;-0.50;99.90;;;;;;5091543;28;20200;-62
2021/12/07 00:17:45;;;;;;;24.97;13.13;;;-0.50;99.90;;;;;;5080129;28;20271;-62
2021/12/07 00:20:14;;;;;;;22.90;12.73;;;-0.50;99.90;;;;;;5074516;28;20208;-61
2021/12/07 00:22:42;;;;;;;20.93;11.80;;;-0.50;99.90;;;;;;5085677;28;20213;-62
2021/12/07 00:25:10;;;;;;;24.43;12.73;;;-0.50;99.90;;;;;;5091730;28;20531;-65
2021/12/07 00:27:37;;;;;;;22.27;12.67;;;-0.50;99.90;;;;;;5095959;28;20724;-62
2021/12/07 00:30:09;;;;;;;24.23;12.83;;;-0.60;99.90;;;;;;5090147;28;20205;-64
2021/12/07 00:32:40;;;;;;;21.63;12.23;;;-0.60;99.90;;;;;;5082396;28;20617;-63
2021/12/07 00:35:33;;;;;;;18.87;11.30;;;-0.60;99.90;;;;;;5076184;28;20208;-63
2021/12/07 00:38:02;;;;;;;23.13;12.17;;;-0.60;99.90;;;;;;5092930;28;20204;-63
2021/12/07 00:40:30;;;;;;;22.13;12.10;;;-0.60;99.90;;;;;;5080375;28;20218;-64
2021/12/07 00:42:57;;;;;;;22.23;12.23;;;-0.70;99.90;;;;;;5085904;28;20205;-63
2021/12/07 00:45:25;;;;;;;21.87;11.40;;;-0.80;99.90;;;;;;5090680;28;20802;-63
2021/12/07 00:47:54;;;;;;;24.73;12.70;;;-0.80;99.90;;;;;;5073699;28;20221;-64
2021/12/07 00:50:24;;;;;;;24.33;12.23;;;-0.70;99.90;;;;;;5077422;28;20663;-64
2021/12/07 00:52:51;;;;;;;28.13;13.40;;;-0.70;99.90;;;;;;5091546;28;20262;-63
2021/12/07 00:55:23;;;;;;;27.30;14.17;;;-0.80;99.90;;;;;;5094995;28;20197;-63
2021/12/07 00:57:53;;;;;;;27.07;13.53;;;-0.80;99.90;;;;;;5081727;28;20271;-64
2021/12/07 01:00:21;;;;;;;24.27;13.17;;;-0.70;99.90;;;;;;5078115;28;20216;-63
2021/12/07 01:02:49;;;;;;;29.03;15.00;;;-0.70;99.90;;;;;;5075481;28;20205;-64
2021/12/07 01:05:21;;;;;;;25.07;12.63;;;-0.70;99.90;;;;;;5088361;28;20747;-66
2021/12/07 01:08:12;;;;;;;25.73;13.00;;;-0.70;99.90;;;;;;5100672;28;20209;-63
2021/12/07 01:24:43;;;;;;;26.23;12.73;;;-0.80;99.90;;;;;;5092997;28;20674;-62
2021/12/07 01:27:13;;;;;;;24.43;13.20;;;-0.70;99.90;;;;;;5089739;28;20229;-63
2021/12/07 01:29:42;;;;;;;26.47;13.23;;;-0.80;99.90;;;;;;5087479;28;20270;-64
2021/12/07 01:37:53;;;;;;;23.13;13.27;;;-0.80;99.90;;;;;;5069571;28;20223;-63
2021/12/07 01:40:35;;;;;;;27.33;13.70;;;-0.80;99.90;;;;;;5082650;28;20536;-64
2021/12/07 01:46:23;;;;;;;25.33;13.93;;;-0.80;99.90;;;;;;5069171;28;20200;-62
2021/12/07 01:51:52;;;;;;;26.00;13.13;;;-0.70;99.90;;;;;;5079933;28;20195;-64
2021/12/07 01:59:50;;;;;;;29.87;14.50;;;-0.70;99.90;;;;;;5087372;28;20191;-63
2021/12/07 02:02:18;;;;;;;25.90;13.87;;;-0.70;99.90;;;;;;5085750;28;20291;-66
2021/12/07 02:04:46;;;;;;;26.27;14.00;;;-0.80;99.90;;;;;;5077363;28;20295;-64
2021/12/07 02:07:15;;;;;;;26.40;13.47;;;-0.80;99.90;;;;;;5077499;28;20629;-62
2021/12/07 02:09:47;;;;;;;25.73;12.50;;;-0.80;99.90;;;;;;5095033;28;20351;-63
2021/12/07 02:12:14;;;;;;;24.73;13.13;;;-0.70;99.90;;;;;;5075434;28;20231;-63
2021/12/07 02:14:42;;;;;;;25.80;13.27;;;-0.80;99.90;;;;;;5089972;28;20236;-62
2021/12/07 02:17:12;;;;;;;27.27;12.77;;;-0.80;99.90;;;;;;5082856;28;20232;-62
2021/12/07 02:19:40;;;;;;;29.10;13.63;;;-0.80;99.90;;;;;;5075745;28;20201;-63
2021/12/07 02:22:10;;;;;;;24.80;12.73;;;-0.80;99.90;;;;;;5080437;28;20296;-63
2021/12/07 02:24:37;;;;;;;24.53;13.03;;;-0.80;99.90;;;;;;5094952;28;20650;-64
2021/12/07 02:27:05;;;;;;;26.73;13.23;;;-0.80;99.90;;;;;;5079991;28;20232;-63
2021/12/07 02:29:32;;;;;;;27.83;13.87;;;-0.80;99.90;;;;;;5094909;28;20227;-63
2021/12/07 02:32:01;;;;;;;27.00;14.17;;;-0.80;99.90;;;;;;5075407;28;20260;-63
2021/12/07 02:34:28;;;;;;;27.77;14.13;;;-0.80;99.90;;;;;;5071631;28;20222;-63
2021/12/07 02:36:56;;;;;;;27.83;13.37;;;-0.70;99.90;;;;;;5075116;28;20213;-63
2021/12/07 02:39:31;;;;;;;22.83;12.43;;;-0.70;99.90;;;;;;5082031;28;20204;-63
2021/12/07 02:41:58;;;;;;;23.03;13.17;;;-0.70;99.90;;;;;;5088981;28;20204;-64
2021/12/07 02:44:25;;;;;;;22.87;12.43;;;-0.70;99.90;;;;;;5074430;28;20650;-64
2021/12/07 02:46:52;;;;;;;23.87;13.37;;;-0.70;99.90;;;;;;5073802;28;20696;-62
2021/12/07 02:49:20;;;;;;;26.73;13.27;;;-0.70;99.90;;;;;;5078445;28;20231;-64
2021/12/07 02:51:48;;;;;;;25.47;12.77;;;-0.60;99.90;;;;;;5082169;28;20208;-63
2021/12/07 02:54:15;;;;;;;25.50;13.00;;;-0.60;99.90;;;;;;5080746;28;20643;-63
2021/12/07 02:56:43;;;;;;;25.07;12.90;;;-0.60;99.90;;;;;;5074398;28;20233;-64
2021/12/07 02:59:11;;;;;;;23.20;12.67;;;-0.50;99.90;;;;;;5074076;28;20241;-64
2021/12/07 03:01:44;;;;;;;28.30;12.97;;;-0.60;99.90;;;;;;5076057;28;20213;-64
2021/12/07 03:04:20;;;;;;;24.00;11.60;;;-0.60;99.90;;;;;;5080990;28;20235;-63
2021/12/07 03:06:58;;;;;;;23.77;12.70;;;-0.60;99.90;;;;;;5082212;28;20204;-63
2021/12/07 03:26:05;;;;;;;23.90;12.83;;;-0.60;99.90;;;;;;5094126;28;20610;-65
2021/12/07 03:28:34;;;;;;;23.83;12.53;;;-0.50;99.90;;;;;;5085539;28;20221;-64
2021/12/07 03:31:03;;;;;;;21.27;11.80;;;-0.60;99.90;;;;;;5083698;28;20308;-63
2021/12/07 03:33:30;;;;;;;24.60;12.43;;;-0.60;99.90;;;;;;5080414;28;20295;-64
2021/12/07 03:35:57;;;;;;;26.60;12.77;;;-0.60;99.90;;;;;;5073159;28;20785;-64
2021/12/07 03:38:25;;;;;;;22.40;12.23;;;-0.60;99.90;;;;;;5092790;28;20290;-64
2021/12/07 03:40:52;;;;;;;24.50;12.37;;;-0.60;99.90;;;;;;5090134;28;20236;-62
2021/12/07 03:43:19;;;;;;;25.17;12.73;;;-0.60;99.90;;;;;;5081777;28;20333;-63
2021/12/07 03:45:47;;;;;;;25.63;12.90;;;-0.60;99.90;;;;;;5091681;28;20259;-64
2021/12/07 03:48:15;;;;;;;23.63;11.70;;;-0.50;99.90;;;;;;5086448;28;20247;-63
2021/12/07 03:50:42;;;;;;;27.63;13.53;;;-0.50;99.90;;;;;;5077560;28;20288;-62
2021/12/07 03:53:10;;;;;;;27.33;13.30;;;-0.60;99.90;;;;;;5087110;28;20197;-63
2021/12/07 03:55:37;;;;;;;23.20;12.37;;;-0.50;99.90;;;;;;5072772;28;20223;-64
2021/12/07 03:58:05;;;;;;;26.10;11.97;;;-0.50;99.90;;;;;;5082925;28;20212;-64
2021/12/07 04:00:34;;;;;;;21.27;12.10;;;-0.60;99.90;;;;;;5080383;28;20236;-63
2021/12/07 04:03:07;;;;;;;23.23;11.67;;;-0.60;99.90;;;;;;5075113;28;20573;-63
2021/12/07 04:05:36;;;;;;;23.57;11.13;;;-0.60;99.90;;;;;;5084146;28;20208;-63
2021/12/07 04:08:04;;;;;;;23.50;12.50;;;-0.70;99.90;;;;;;5077655;28;20233;-63
2021/12/07 04:10:31;;;;;;;22.77;12.10;;;-0.70;99.90;;;;;;5084673;28;20205;-63
2021/12/07 04:12:58;;;;;;;23.80;11.90;;;-0.70;99.90;;;;;;5087748;28;20632;-63
2021/12/07 04:15:25;;;;;;;24.57;12.67;;;-0.70;99.90;;;;;;5083408;28;20200;-63
2021/12/07 04:17:52;;;;;;;22.80;11.87;;;-0.80;99.90;;;;;;5080775;28;20392;-63
2021/12/07 04:20:21;;;;;;;24.23;12.57;;;-0.70;99.90;;;;;;5073461;28;20232;-64
2021/12/07 04:22:49;;;;;;;25.60;13.13;;;-0.70;99.90;;;;;;5084515;28;20236;-63
2021/12/07 04:25:18;;;;;;;24.27;12.97;;;-0.70;99.90;;;;;;5093364;28;20697;-64
2021/12/07 04:27:45;;;;;;;22.17;12.40;;;-0.60;99.90;;;;;;5093058;28;20232;-63
2021/12/07 04:30:15;;;;;;;29.20;12.97;;;-0.60;99.90;;;;;;5078585;28;20272;-64
2021/12/07 04:32:43;;;;;;;27.43;12.67;;;-0.60;99.90;;;;;;5092548;28;20236;-64
2021/12/07 04:35:11;;;;;;;25.47;13.50;;;-0.60;99.90;;;;;;5069900;28;20293;-64
2021/12/07 04:37:41;;;;;;;21.50;11.87;;;-0.60;99.90;;;;;;5080447;28;20212;-63
2021/12/07 04:40:12;;;;;;;25.33;13.03;;;-0.50;99.90;;;;;;5086141;28;20285;-63
2021/12/07 04:42:39;;;;;;;27.47;13.53;;;-0.60;99.90;;;;;;5065800;28;20244;-63
2021/12/07 04:45:10;;;;;;;27.57;13.00;;;-0.60;99.90;;;;;;5078512;28;20205;-63
2021/12/07 04:47:48;;;;;;;26.27;13.37;;;-0.70;99.90;;;;;;5073814;28;20240;-63
2021/12/07 04:58:23;;;;;;;31.83;12.80;;;-0.70;99.90;;;;;;5045507;28;20225;-62
2021/12/07 05:00:50;;;;;;;25.70;13.43;;;-0.70;99.90;;;;;;5072958;28;20245;-63
2021/12/07 05:03:17;;;;;;;26.47;12.93;;;-0.70;99.90;;;;;;5072008;28;20241;-63
2021/12/07 05:05:47;;;;;;;25.60;12.70;;;-0.80;99.90;;;;;;5074571;28;20390;-63
2021/12/07 05:08:22;;;;;;;26.97;13.87;;;-0.80;99.90;;;;;;5079323;28;20213;-61
2021/12/07 05:11:23;;;;;;;28.33;14.50;;;-0.80;99.90;;;;;;5084465;28;20557;-62
2021/12/07 05:13:57;;;;;;;28.83;14.17;;;-0.70;99.90;;;;;;5079058;28;20209;-62
2021/12/07 05:23:52;;;;;;;25.07;12.57;;;-0.80;99.90;;;;;;5075197;28;20197;-63
2021/12/07 05:24:52;;;;;;;25.23;12.00;;;-0.70;99.90;;;;;;5088147;28;20330;-64
2021/12/07 05:38:03;;;;;;;23.17;12.50;;;-0.70;99.90;;;;;;5079891;28;20196;-63
2021/12/07 05:40:34;;;;;;;24.47;11.77;;;-0.70;99.90;;;;;;5087332;28;20254;-63
2021/12/07 05:43:03;;;;;;;27.63;13.10;;;-0.70;99.90;;;;;;5086086;28;20208;-64
2021/12/07 05:45:33;;;;;;;25.93;12.67;;;-0.70;99.90;;;;;;5075027;28;20299;-64
2021/12/07 05:48:00;;;;;;;26.80;12.83;;;-0.70;99.90;;;;;;5078502;28;20235;-62
2021/12/07 05:50:29;;;;;;;25.10;13.13;;;-0.70;99.90;;;;;;5076225;28;20288;-63
2021/12/07 05:52:57;;;;;;;25.63;12.23;;;-0.70;99.90;;;;;;5081377;28;20207;-64
2021/12/07 05:55:24;;;;;;;25.67;12.77;;;-0.70;99.90;;;;;;5094062;28;20272;-64
2021/12/07 05:57:53;;;;;;;25.53;12.50;;;-0.70;99.90;;;;;;5092877;28;20320;-65
2021/12/07 06:00:24;;;;;;;27.63;13.03;;;-0.80;99.90;;;;;;5075387;28;20212;-62
2021/12/07 06:02:52;;;;;;;32.20;14.73;;;-0.80;99.90;;;;;;5075667;28;20644;-65
2021/12/07 06:05:20;;;;;;;26.30;12.87;;;-0.80;99.90;;;;;;5083178;28;20213;-65
2021/12/07 06:07:47;;;;;;;23.03;12.50;;;-0.70;99.90;;;;;;5094309;28;20246;-64
2021/12/07 06:10:14;;;;;;;29.33;15.23;;;-0.70;99.90;;;;;;5087991;28;20560;-63
2021/12/07 06:12:40;;;;;;;35.70;16.23;;;-0.70;99.90;;;;;;5085740;28;20571;-64
2021/12/07 06:15:10;;;;;;;35.10;15.70;;;-0.70;99.90;;;;;;5078421;28;20196;-64
2021/12/07 06:17:37;;;;;;;32.50;16.30;;;-0.70;99.90;;;;;;5073186;28;20213;-64
2021/12/07 06:20:06;;;;;;;32.60;15.97;;;-0.70;99.90;;;;;;5075799;28;20281;-64
2021/12/07 06:22:33;;;;;;;29.87;15.80;;;-0.70;99.90;;;;;;5093248;28;20806;-64
2021/12/07 06:24:59;;;;;;;34.47;15.37;;;-0.70;99.90;;;;;;5093832;28;20209;-64
2021/12/07 06:27:26;;;;;;;31.37;15.27;;;-0.70;99.90;;;;;;5077475;28;20312;-64
2021/12/07 06:29:53;;;;;;;29.50;15.97;;;-0.70;99.90;;;;;;5073413;28;20591;-64
2021/12/07 06:32:22;;;;;;;30.50;15.27;;;-0.70;99.90;;;;;;5086088;28;20272;-64
2021/12/07 06:34:49;;;;;;;30.83;14.67;;;-0.70;99.90;;;;;;5073248;28;20301;-64
2021/12/07 06:37:16;;;;;;;29.50;14.00;;;-0.80;99.90;;;;;;5077669;28;20204;-64
2021/12/07 06:39:43;;;;;;;29.30;13.43;;;-0.80;99.90;;;;;;5077429;28;20288;-64
2021/12/07 06:42:10;;;;;;;25.17;13.63;;;-0.80;99.90;;;;;;5087283;28;20224;-63
2021/12/07 06:44:37;;;;;;;21.80;12.20;;;-0.80;99.90;;;;;;5094259;28;20262;-64
2021/12/07 06:47:06;;;;;;;28.23;13.27;;;-0.80;99.90;;;;;;5077490;28;20247;-65
2021/12/07 06:49:34;;;;;;;25.57;12.37;;;-0.80;99.90;;;;;;5076507;28;20324;-61
2021/12/07 06:52:02;;;;;;;26.27;12.50;;;-0.80;99.90;;;;;;5074062;28;20245;-63
2021/12/07 06:54:29;;;;;;;24.00;13.00;;;-0.80;99.90;;;;;;5083633;28;20236;-62
2021/12/07 06:56:56;;;;;;;26.87;12.93;;;-0.90;99.90;;;;;;5081823;28;20255;-63
2021/12/07 06:59:23;;;;;;;24.83;12.37;;;-0.90;99.90;;;;;;5091362;28;20719;-62
2021/12/07 07:01:51;;;;;;;26.47;14.20;;;-0.80;99.90;;;;;;5079719;28;20299;-63
2021/12/07 07:04:18;;;;;;;26.70;13.73;;;-0.80;99.90;;;;;;5092961;28;20658;-63
2021/12/07 07:06:46;;;;;;;23.30;11.87;;;-0.70;99.90;;;;;;5073956;28;20750;-64
2021/12/07 07:09:13;;;;;;;22.87;12.07;;;-0.80;99.90;;;;;;5083642;28;20260;-63
2021/12/07 07:11:41;;;;;;;24.67;12.73;;;-0.90;99.90;;;;;;5075681;28;20209;-64
2021/12/07 07:14:09;;;;;;;21.80;11.53;;;-1.00;99.90;;;;;;5086709;28;20292;-64
2021/12/07 07:16:36;;;;;;;22.37;11.67;;;-1.00;99.90;;;;;;5072109;28;20245;-62
2021/12/07 07:19:03;;;;;;;23.33;11.50;;;-1.10;99.90;;;;;;5080615;28;20251;-63
2021/12/07 07:21:30;;;;;;;22.53;11.67;;;-1.10;99.90;;;;;;5073872;28;20675;-64
2021/12/07 07:23:59;;;;;;;17.10;9.57;;;-1.20;99.90;;;;;;5070925;28;20292;-64
2021/12/07 07:26:26;;;;;;;20.17;10.00;;;-1.20;99.90;;;;;;5085796;28;20296;-65
2021/12/07 07:28:53;;;;;;;17.50;10.07;;;-1.20;99.90;;;;;;5092612;28;20247;-64
2021/12/07 07:31:19;;;;;;;18.13;10.73;;;-1.20;99.90;;;;;;5074308;28;20275;-64
2021/12/07 07:33:46;;;;;;;18.13;10.40;;;-1.20;99.90;;;;;;5070151;28;20245;-63
2021/12/07 07:36:14;;;;;;;23.10;12.20;;;-1.20;99.90;;;;;;5066965;28;20622;-65
2021/12/07 07:38:41;;;;;;;18.40;9.70;;;-1.20;99.90;;;;;;5069350;28;20693;-65
2021/12/07 07:41:09;;;;;;;20.53;9.93;;;-1.10;99.90;;;;;;5068399;28;20297;-67
2021/12/07 07:43:36;;;;;;;16.37;8.33;;;-1.10;99.90;;;;;;5063967;28;20245;-67
2021/12/07 07:46:03;;;;;;;17.17;8.97;;;-1.10;99.90;;;;;;5056283;28;20291;-66
2021/12/07 07:48:30;;;;;;;13.93;8.00;;;-1.10;99.90;;;;;;5065599;28;20209;-64
2021/12/07 07:50:57;;;;;;;18.27;9.40;;;-1.10;99.90;;;;;;5069889;28;20253;-68
2021/12/07 07:53:24;;;;;;;18.37;10.50;;;-1.10;99.90;;;;;;5070431;28;20237;-66
2021/12/07 07:55:52;;;;;;;18.00;9.57;;;-1.20;99.90;;;;;;5069957;28;20661;-66
2021/12/07 07:58:20;;;;;;;17.13;9.67;;;-1.20;99.90;;;;;;5064168;28;20258;-64
2021/12/07 08:00:49;;;;;;;20.63;10.13;;;-1.20;99.90;;;;;;5056872;28;20758;-65
2021/12/07 08:03:16;;;;;;;18.63;9.93;;;-1.20;99.90;;;;;;5059257;28;20241;-64
2021/12/07 08:05:44;;;;;;;18.27;9.93;;;-1.20;99.90;;;;;;5063942;28;20202;-65
2021/12/07 08:08:10;;;;;;;20.30;9.50;;;-1.20;99.90;;;;;;5071288;28;20232;-65
2021/12/07 08:10:38;;;;;;;19.47;9.50;;;-1.30;99.90;;;;;;5072035;28;20283;-66
2021/12/07 08:13:06;;;;;;;16.70;9.73;;;-1.20;99.90;;;;;;5071663;28;20240;-65
2021/12/07 08:15:39;;;;;;;22.43;11.43;;;-1.20;99.90;;;;;;5070506;28;20232;-65
2021/12/07 08:18:07;;;;;;;24.03;10.53;;;-1.30;99.90;;;;;;5069427;28;20213;-66
2021/12/07 08:20:34;;;;;;;21.03;11.47;;;-1.20;99.90;;;;;;5072033;28;20282;-67
2021/12/07 08:23:04;;;;;;;20.97;11.00;;;-1.20;99.90;;;;;;5071983;28;20217;-68
2021/12/07 08:25:31;;;;;;;23.40;11.77;;;-1.20;99.90;;;;;;5070877;28;20213;-65
2021/12/07 08:27:59;;;;;;;23.90;12.87;;;-1.20;99.90;;;;;;5059915;28;20662;-67
2021/12/07 08:30:28;;;;;;;24.73;12.90;;;-1.20;99.90;;;;;;5070050;28;20303;-66
2021/12/07 08:32:57;;;;;;;23.23;12.70;;;-1.20;99.90;;;;;;5072748;28;20204;-66
2021/12/07 08:35:24;;;;;;;20.73;10.80;;;-1.20;99.90;;;;;;5074193;28;20637;-64
2021/12/07 08:37:51;;;;;;;22.13;11.47;;;-1.10;99.90;;;;;;5071425;28;20240;-66
2021/12/07 08:40:21;;;;;;;24.60;11.83;;;-1.10;99.90;;;;;;5071767;28;20225;-66
2021/12/07 08:42:49;;;;;;;22.10;12.23;;;-1.10;99.90;;;;;;5071778;28;20635;-66
2021/12/07 08:45:16;;;;;;;24.33;12.80;;;-1.10;99.90;;;;;;5072026;28;20316;-67
2021/12/07 08:47:44;;;;;;;24.00;12.23;;;-1.20;99.90;;;;;;5073395;28;20244;-65
2021/12/07 08:50:16;;;;;;;22.57;12.30;;;-1.30;99.90;;;;;;5076462;28;20282;-66
2021/12/07 08:52:43;;;;;;;22.97;12.40;;;-1.30;99.90;;;;;;5076327;28;20259;-66
2021/12/07 09:00:41;;;;;;;23.60;12.47;;;-1.20;99.90;;;;;;5081651;28;20603;-67
2021/12/07 09:03:08;;;;;;;22.50;11.87;;;-1.20;99.90;;;;;;5081676;28;20671;-66
2021/12/07 09:05:38;;;;;;;25.67;13.63;;;-1.20;99.90;;;;;;5095250;28;20204;-66
2021/12/07 09:08:05;;;;;;;23.70;13.63;;;-1.10;99.90;;;;;;5078053;28;20209;-67
2021/12/07 09:10:32;;;;;;;24.23;13.30;;;-1.10;99.90;;;;;;5072279;28;20627;-66
2021/12/07 09:13:00;;;;;;;23.30;12.73;;;-1.00;99.90;;;;;;5074599;28;20231;-66
2021/12/07 09:15:27;;;;;;;22.13;11.87;;;-1.00;99.90;;;;;;5073009;28;20209;-66
2021/12/07 09:17:53;;;;;;;18.10;10.50;;;-1.00;99.90;;;;;;5072333;28;20272;-67
2021/12/07 09:20:21;;;;;;;16.63;9.73;;;-1.00;99.90;;;;;;5072926;28;20227;-66
2021/12/07 09:22:50;;;;;;;21.03;11.57;;;-1.00;99.90;;;;;;5070322;28;20216;-66
2021/12/07 09:25:19;;;;;;;18.73;10.80;;;-1.00;99.90;;;;;;5072796;28;20702;-66
2021/12/07 09:27:46;;;;;;;18.87;10.50;;;-0.90;99.90;;;;;;5064335;28;20328;-64
2021/12/07 09:30:15;;;;;;;17.23;9.30;;;-0.90;99.90;;;;;;5073830;28;20232;-65
2021/12/07 09:32:43;;;;;;;19.20;11.03;;;-0.80;99.90;;;;;;5070403;28;20733;-65
2021/12/07 09:35:11;;;;;;;20.77;11.13;;;-0.80;99.90;;;;;;5061768;28;20256;-65
2021/12/07 09:37:38;;;;;;;17.77;10.27;;;-0.80;99.90;;;;;;5072433;28;20309;-66
2021/12/07 09:40:10;;;;;;;21.53;11.20;;;-0.60;99.90;;;;;;5070940;28;20288;-65
2021/12/07 09:42:38;;;;;;;15.33;8.97;;;-0.70;99.90;;;;;;5072914;28;20416;-66
2021/12/07 09:45:07;;;;;;;18.07;9.80;;;-0.70;99.90;;;;;;5068905;28;20251;-65
2021/12/07 09:47:34;;;;;;;14.50;9.10;;;-0.70;99.90;;;;;;5067470;28;20297;-65
2021/12/07 09:50:01;;;;;;;11.87;8.40;;;-0.70;99.90;;;;;;5065369;28;20225;-66
2021/12/07 09:52:29;;;;;;;16.70;8.47;;;-0.70;99.90;;;;;;5071932;28;20228;-66
2021/12/07 09:54:56;;;;;;;14.82;9.52;;;-0.70;99.90;;;;;;5069539;28;20537;-65
2021/12/07 09:57:25;;;;;;;14.10;8.30;;;-0.70;99.90;;;;;;5071979;28;20288;-65
2021/12/07 09:59:52;;;;;;;16.03;8.33;;;-0.80;99.90;;;;;;5072867;28;20193;-65
2021/12/07 10:02:19;;;;;;;12.07;7.47;;;-0.80;99.90;;;;;;5063433;28;20726;-64
2021/12/07 10:04:46;;;;;;;15.10;8.17;;;-0.80;99.90;;;;;;5073475;28;20567;-64
2021/12/07 10:07:13;;;;;;;15.37;8.40;;;-0.80;99.90;;;;;;5080132;28;20239;-64
2021/12/07 10:09:41;;;;;;;15.57;8.53;;;-0.80;99.90;;;;;;5066443;28;20520;-64
2021/12/07 10:12:08;;;;;;;12.90;8.03;;;-0.70;99.90;;;;;;5071144;28;20209;-64
2021/12/07 10:14:42;;;;;;;14.37;8.03;;;-0.70;99.90;;;;;;5073966;28;20619;-65
2021/12/07 10:17:10;;;;;;;15.80;9.50;;;-0.80;99.90;;;;;;5065503;28;20201;-67
2021/12/07 10:19:42;;;;;;;15.83;8.80;;;-0.80;99.90;;;;;;5073335;28;20244;-66
2021/12/07 10:22:12;;;;;;;15.87;8.17;;;-0.70;99.90;;;;;;5072395;28;20197;-64
2021/12/07 10:24:45;;;;;;;18.88;11.88;;;-0.70;99.90;;;;;;5065144;28;20451;-67
2021/12/07 10:27:13;;;;;;;19.20;9.73;;;-0.80;99.90;;;;;;5068066;28;20215;-65
2021/12/07 10:29:41;;;;;;;15.00;8.47;;;-0.80;99.90;;;;;;5071369;28;20232;-65
2021/12/07 10:32:09;;;;;;;13.47;8.47;;;-0.80;99.90;;;;;;5071778;28;20272;-66
2021/12/07 10:34:40;;;;;;;16.57;8.57;;;-0.80;99.90;;;;;;5069293;28;20783;-66
2021/12/07 10:37:11;;;;;;;16.60;8.87;;;-0.70;99.90;;;;;;5073792;28;20657;-66
2021/12/07 10:39:40;;;;;;;14.97;8.07;;;-0.70;99.90;;;;;;5063037;28;20754;-65
2021/12/07 10:42:10;;;;;;;19.60;9.00;;;-0.60;99.90;;;;;;5071883;28;20291;-66
2021/12/07 10:44:38;;;;;;;15.73;9.30;;;-0.50;99.90;;;;;;5071468;28;20288;-66
2021/12/07 10:47:08;;;;;;;16.53;9.27;;;-0.50;99.90;;;;;;5066642;28;20293;-64
2021/12/07 10:49:46;;;;;;;16.97;9.90;;;-0.50;99.90;;;;;;5072185;28;20213;-64
2021/12/07 10:52:17;;;;;;;16.67;9.63;;;-0.50;99.90;;;;;;5068003;28;20205;-65
2021/12/07 10:54:51;;;;;;;20.50;10.37;;;-0.60;99.90;;;;;;5069388;28;20233;-63
2021/12/07 10:57:22;;;;;;;19.03;10.83;;;-0.60;99.90;;;;;;5067039;28;20320;-65
2021/12/07 10:59:55;;;;;;;19.33;10.80;;;-0.60;99.90;;;;;;5070201;28;20227;-67
2021/12/07 11:02:25;;;;;;;22.20;12.30;;;-0.70;99.90;;;;;;5066694;28;20632;-65
2021/12/07 11:04:52;;;;;;;27.53;15.20;;;-0.60;99.90;;;;;;5069092;28;20208;-65
2021/12/07 11:07:22;;;;;;;20.90;12.87;;;-0.60;99.90;;;;;;5064073;28;20553;-66
2021/12/07 11:10:04;;;;;;;24.47;13.00;;;-0.50;99.90;;;;;;5064653;28;20292;-66
2021/12/07 11:12:40;;;;;;;19.17;11.60;;;-0.50;99.90;;;;;;5064154;28;20259;-65
2021/12/07 11:15:15;;;;;;;20.13;11.77;;;-0.40;99.90;;;;;;5065423;28;20665;-66
2021/12/07 11:17:44;;;;;;;19.70;12.00;;;-0.30;99.90;;;;;;5060338;28;20197;-66
2021/12/07 11:20:12;;;;;;;20.80;11.80;;;-0.10;99.90;;;;;;5070704;28;20289;-66
2021/12/07 11:22:43;;;;;;;20.87;11.53;;;0.00;99.90;;;;;;5056134;28;20647;-66
2021/12/07 11:25:15;;;;;;;21.53;12.50;;;0.10;99.90;;;;;;5068008;28;21742;-66
2021/12/07 11:30:33;;;;;;;22.37;11.57;;;0.50;99.90;;;;;;5071104;28;20259;-65
2021/12/07 11:33:02;;;;;;;20.23;10.80;;;0.60;99.90;;;;;;5071580;28;20220;-66
2021/12/07 11:35:33;;;;;;;17.50;10.27;;;0.80;99.90;;;;;;5069956;28;20539;-66
2021/12/07 11:38:03;;;;;;;19.07;10.80;;;0.80;99.90;;;;;;5065389;28;20205;-66
2021/12/07 11:40:32;;;;;;;22.60;10.17;;;0.80;99.90;;;;;;5071015;28;20292;-66
2021/12/07 11:43:00;;;;;;;22.60;10.87;;;0.80;99.90;;;;;;5063338;28;20296;-66
2021/12/07 11:45:29;;;;;;;19.07;10.30;;;0.70;99.90;;;;;;5070513;28;20825;-66
2021/12/07 11:47:58;;;;;;;15.80;9.97;;;0.60;99.90;;;;;;5070360;28;20621;-65
2021/12/07 11:50:35;;;;;;;21.43;11.40;;;0.50;99.90;;;;;;5068197;28;20221;-66
2021/12/07 11:53:05;;;;;;;20.90;11.07;;;0.50;99.90;;;;;;5072480;28;20236;-66
2021/12/07 11:55:35;;;;;;;18.67;10.83;;;0.40;99.90;;;;;;5060112;28;20292;-66
2021/12/07 11:58:03;;;;;;;23.87;12.00;;;0.40;99.90;;;;;;5068031;28;20251;-68
2021/12/07 12:00:35;;;;;;;19.47;10.87;;;0.30;99.90;;;;;;5063462;28;20260;-67
2021/12/07 12:03:03;;;;;;;19.00;10.73;;;0.40;99.90;;;;;;5062036;28;20293;-66
2021/12/07 12:05:32;;;;;;;19.47;10.63;;;0.20;99.90;;;;;;5060996;28;20213;-66
2021/12/07 12:07:59;;;;;;;29.77;12.50;;;0.10;99.90;;;;;;5065310;28;20220;-65
2021/12/07 12:10:26;;;;;;;22.23;12.67;;;0.10;99.90;;;;;;5067478;28;20312;-66
2021/12/07 12:13:17;;;;;;;23.67;11.83;;;0.10;99.90;;;;;;5060944;28;20686;-67
2021/12/07 12:16:07;;;;;;;27.17;14.10;;;-0.10;99.90;;;;;;5062526;28;20569;-66
2021/12/07 12:18:45;;;;;;;27.17;14.53;;;-0.10;99.90;;;;;;5065328;28;20244;-66
2021/12/07 12:21:18;;;;;;;24.00;13.47;;;-0.20;99.90;;;;;;5071390;28;20197;-66
2021/12/07 12:23:59;;;;;;;26.93;13.90;;;-0.20;99.90;;;;;;5073197;28;20197;-65
2021/12/07 12:26:27;;;;;;;25.50;13.20;;;-0.20;99.90;;;;;;5072976;28;20678;-66
2021/12/07 12:28:56;;;;;;;23.47;11.93;;;-0.30;99.90;;;;;;5073798;28;20205;-65
2021/12/07 12:31:45;;;;;;;21.97;13.20;;;-0.30;99.90;;;;;;5068277;28;20229;-66
2021/12/07 12:34:18;;;;;;;22.63;13.13;;;-0.30;99.90;;;;;;5072012;28;20725;-66
2021/12/07 12:36:58;;;;;;;23.87;13.90;;;-0.30;99.90;;;;;;5071916;28;20255;-65
2021/12/07 12:39:43;;;;;;;25.70;13.13;;;-0.40;99.90;;;;;;5072899;28;20628;-66
2021/12/07 12:42:11;;;;;;;23.63;13.70;;;-0.50;99.90;;;;;;5073446;28;20293;-66
2021/12/07 12:44:39;;;;;;;20.60;12.73;;;-0.60;99.90;;;;;;5067962;28;20296;-65
2021/12/07 12:47:06;;;;;;;24.50;13.93;;;-0.60;99.90;;;;;;5069340;28;20206;-66
2021/12/07 12:49:38;;;;;;;26.67;14.37;;;-0.60;99.90;;;;;;5067096;28;20228;-66
2021/12/07 12:52:07;;;;;;;29.30;14.70;;;-0.70;99.90;;;;;;5069921;28;20225;-67
2021/12/07 12:54:43;;;;;;;26.00;15.13;;;-0.60;99.90;;;;;;5071732;28;20288;-67
2021/12/07 12:57:16;;;;;;;25.27;13.90;;;-0.70;99.90;;;;;;5059121;28;20252;-67
2021/12/07 12:59:45;;;;;;;26.80;14.90;;;-0.70;99.90;;;;;;5069186;28;20221;-66
2021/12/07 13:02:13;;;;;;;29.53;15.63;;;-0.70;99.90;;;;;;5072460;28;20225;-67
2021/12/07 13:04:41;;;;;;;28.93;15.90;;;-0.70;99.90;;;;;;5067252;28;20224;-67
2021/12/07 13:07:24;;;;;;;29.47;14.90;;;-0.70;99.90;;;;;;5069650;28;20654;-66
2021/12/07 13:09:56;;;;;;;29.90;16.40;;;-0.70;99.90;;;;;;5065219;28;20201;-66
2021/12/07 13:12:24;;;;;;;31.07;14.90;;;-0.80;99.90;;;;;;5066938;28;20308;-66
2021/12/07 13:15:01;;;;;;;26.60;15.43;;;-0.80;99.90;;;;;;5066158;28;20926;-66
2021/12/07 13:17:33;;;;;;;30.47;16.57;;;-0.80;99.90;;;;;;5064154;28;20639;-66
2021/12/07 13:20:16;;;;;;;25.37;14.30;;;-0.80;99.90;;;;;;5069792;28;20259;-68
2021/12/07 13:22:48;;;;;;;21.13;12.53;;;-0.90;99.90;;;;;;5072743;28;20288;-67
2021/12/07 13:25:18;;;;;;;24.50;12.80;;;-0.80;99.90;;;;;;5072959;28;20325;-67
2021/12/07 13:28:13;;;;;;;25.73;13.03;;;-0.90;99.90;;;;;;5071285;28;20632;-66
2021/12/07 13:30:54;;;;;;;22.90;12.97;;;-0.90;99.90;;;;;;5070004;28;20240;-68
2021/12/07 13:33:23;;;;;;;23.70;11.50;;;-1.00;99.90;;;;;;5070200;28;20292;-66
2021/12/07 13:35:52;;;;;;;23.30;12.00;;;-1.00;99.90;;;;;;5073087;28;20240;-66
2021/12/07 13:38:22;;;;;;;18.37;10.63;;;-1.00;99.90;;;;;;5073582;28;20252;-67
2021/12/07 13:40:52;;;;;;;20.97;11.33;;;-1.10;99.90;;;;;;5061717;28;20297;-67
2021/12/07 13:43:34;;;;;;;24.10;12.77;;;-1.10;99.90;;;;;;5072296;28;20318;-67
2021/12/07 13:46:13;;;;;;;23.57;12.27;;;-1.20;99.90;;;;;;5073318;28;20232;-68
2021/12/07 13:48:41;;;;;;;19.30;11.17;;;-1.20;99.90;;;;;;5072907;28;20256;-67
2021/12/07 13:51:09;;;;;;;21.40;11.50;;;-1.10;99.90;;;;;;5069406;28;20650;-66
2021/12/07 13:53:39;;;;;;;18.60;10.53;;;-1.10;99.90;;;;;;5073085;28;20209;-66
2021/12/07 13:56:08;;;;;;;18.13;10.40;;;-1.20;99.90;;;;;;5072709;28;20617;-68
2021/12/07 13:58:51;;;;;;;22.93;11.13;;;-1.20;99.90;;;;;;5074425;28;20201;-66
2021/12/07 14:01:18;;;;;;;20.67;10.43;;;-1.20;99.90;;;;;;5067667;28;20198;-66